createdAt,value
2022-09-24T00:03:47.102Z,20.90
2022-09-24T00:08:55.922Z,14.75
2022-09-24T00:14:02.249Z,12.32
2022-09-24T00:19:08.093Z,16.60
2022-09-24T00:24:38.090Z,11.60
2022-09-24T00:29:43.771Z,14.18
2022-09-24T00:34:49.521Z,15.35
2022-09-24T00:39:55.107Z,13.18
2022-09-24T00:50:15.718Z,20.92
2022-09-24T00:55:25.300Z,18.80
2022-09-24T01:00:32.061Z,13.95
2022-09-24T01:05:40.016Z,17.77
2022-09-24T01:10:56.573Z,22.40
2022-09-24T01:16:15.489Z,17.17
2022-09-24T01:21:41.120Z,24.90
2022-09-24T01:27:10.891Z,22.33
2022-09-24T01:32:21.890Z,20.98
2022-09-24T01:37:30.799Z,23.63
2022-09-24T01:42:38.619Z,16.60
2022-09-24T01:47:47.616Z,22.63
2022-09-24T01:53:25.473Z,22.10
2022-09-24T01:58:50.477Z,23.30
2022-09-24T02:04:03.051Z,23.20
2022-09-24T02:09:08.780Z,26.08
2022-09-24T02:14:17.827Z,25.02
2022-09-24T02:19:29.153Z,17.35
2022-09-24T02:24:40.992Z,13.32
2022-09-24T02:29:47.074Z,13.15
2022-09-24T02:35:02.948Z,12.48
2022-09-24T02:40:14.081Z,21.17
2022-09-24T02:45:26.053Z,20.35
2022-09-24T02:50:36.027Z,17.08
2022-09-24T02:55:42.583Z,17.95
2022-09-24T03:00:48.582Z,23.77
2022-09-24T03:05:57.326Z,21.67
2022-09-24T03:11:03.465Z,21.15
2022-09-24T03:16:10.296Z,20.95
2022-09-24T03:21:18.022Z,22.40
2022-09-24T03:26:24.223Z,26.00
2022-09-24T03:36:34.869Z,21.40
2022-09-24T03:46:45.623Z,21.02
2022-09-24T04:02:02.832Z,25.83
2022-09-24T04:07:09.086Z,26.20
2022-09-24T04:12:14.943Z,19.60
2022-09-24T04:22:26.352Z,25.98
2022-09-24T04:27:32.704Z,20.38
2022-09-24T04:32:38.395Z,30.08
2022-09-24T04:42:50.544Z,23.95
2022-09-24T04:47:59.946Z,30.38
2022-09-24T04:53:10.182Z,24.80
2022-09-24T04:58:17.264Z,26.55
2022-09-24T05:03:23.334Z,30.30
2022-09-24T05:08:28.978Z,28.95
2022-09-24T05:13:34.607Z,27.05
2022-09-24T05:18:40.376Z,30.30
2022-09-24T05:23:46.354Z,26.85
2022-09-24T05:28:53.935Z,28.30
2022-09-24T05:33:59.471Z,26.65
2022-09-24T05:39:05.665Z,29.92
2022-09-24T05:44:13.037Z,28.75
2022-09-24T05:49:19.373Z,28.20
2022-09-24T05:54:25.248Z,28.65
2022-09-24T05:59:30.809Z,28.30
2022-09-24T06:04:36.299Z,17.23
2022-09-24T06:09:41.926Z,28.42
2022-09-24T06:14:47.377Z,24.38
2022-09-24T06:19:53.864Z,27.17
2022-09-24T06:24:59.721Z,29.42
2022-09-24T06:30:06.457Z,22.13
2022-09-24T06:35:12.294Z,23.10
2022-09-24T06:40:18.641Z,24.08
2022-09-24T06:45:25.408Z,23.45
2022-09-24T06:50:32.635Z,20.63
2022-09-24T06:55:39.612Z,16.10
2022-09-24T07:00:45.411Z,17.00
2022-09-24T07:05:51.404Z,14.82
2022-09-24T07:10:57.049Z,23.00
2022-09-24T07:16:03.257Z,20.90
2022-09-24T07:21:09.283Z,18.58
2022-09-24T07:26:15.575Z,14.70
2022-09-24T07:31:21.040Z,13.27
2022-09-24T07:36:26.661Z,24.33
2022-09-24T07:41:34.655Z,18.83
2022-09-24T07:46:42.040Z,26.45
2022-09-24T07:56:53.346Z,26.73
2022-09-24T08:02:04.622Z,13.65
2022-09-24T08:07:10.779Z,25.67
2022-09-24T08:12:26.166Z,24.50
2022-09-24T08:17:34.416Z,23.20
2022-09-24T08:22:40.466Z,23.48
2022-09-24T08:27:46.426Z,25.90
2022-09-24T08:32:52.087Z,17.60
2022-09-24T08:43:07.816Z,27.63
2022-09-24T08:48:24.138Z,17.15
2022-09-24T08:53:55.603Z,22.83
2022-09-24T08:59:05.087Z,20.08
2022-09-24T09:04:44.617Z,26.60
2022-09-24T09:10:30.789Z,28.25
2022-09-24T09:15:41.881Z,28.83
2022-09-24T09:20:50.321Z,28.42
2022-09-24T09:26:01.430Z,30.42
2022-09-24T09:31:25.552Z,26.92
2022-09-24T09:36:40.751Z,18.50
2022-09-24T09:41:59.817Z,25.88
2022-09-24T09:47:38.893Z,28.50
2022-09-24T09:52:45.357Z,28.88
2022-09-24T09:57:52.595Z,35.53
2022-09-24T10:02:59.191Z,37.00
2022-09-24T10:08:05.222Z,32.95
2022-09-24T10:13:14.490Z,30.15
2022-09-24T10:18:26.422Z,29.65
2022-09-24T10:23:52.054Z,33.08
2022-09-24T10:29:15.798Z,40.10
2022-09-24T10:34:31.242Z,35.33
2022-09-24T10:39:36.761Z,34.00
2022-09-24T10:49:50.878Z,39.45
2022-09-24T10:55:28.572Z,37.50
2022-09-24T11:00:50.822Z,36.15
2022-09-24T11:06:15.141Z,32.38
2022-09-24T11:11:49.835Z,35.72
2022-09-24T11:17:07.679Z,37.30
2022-09-24T11:22:38.492Z,34.75
2022-09-24T11:28:22.666Z,37.95
2022-09-24T11:33:36.548Z,37.50
2022-09-24T11:38:51.519Z,33.28
2022-09-24T11:44:34.367Z,39.65
2022-09-24T11:49:56.882Z,37.55
2022-09-24T11:55:22.142Z,34.92
2022-09-24T12:00:34.771Z,40.22
2022-09-24T12:05:48.073Z,38.58
2022-09-24T12:11:20.886Z,41.03
2022-09-24T12:16:33.194Z,38.35
2022-09-24T12:21:47.606Z,40.92
2022-09-24T12:26:57.903Z,39.15
2022-09-24T12:32:43.159Z,39.78
2022-09-24T12:37:52.164Z,35.70
2022-09-24T12:43:02.137Z,32.45
2022-09-24T12:48:08.593Z,35.67
2022-09-24T12:53:26.593Z,32.65
2022-09-24T12:58:49.423Z,31.77
2022-09-24T13:04:16.346Z,32.95
2022-09-24T13:09:41.604Z,27.75
2022-09-24T13:15:05.983Z,26.60
2022-09-24T13:20:27.662Z,28.48
2022-09-24T13:25:33.601Z,21.52
2022-09-24T13:30:45.221Z,26.63
2022-09-24T13:36:26.527Z,25.33
2022-09-24T13:41:55.189Z,21.77
2022-09-24T13:48:06.450Z,22.05
2022-09-24T13:53:36.762Z,21.38
2022-09-24T13:58:45.557Z,20.40
2022-09-24T14:04:03.888Z,17.02
2022-09-24T14:09:41.062Z,25.38
2022-09-24T14:14:53.310Z,25.23
2022-09-24T14:20:00.015Z,22.38
2022-09-24T14:25:11.203Z,14.95
2022-09-24T14:30:33.205Z,24.40
2022-09-24T14:35:47.211Z,22.17
2022-09-24T14:40:59.237Z,17.35
2022-09-24T14:46:11.153Z,26.90
2022-09-24T14:52:04.939Z,24.17
2022-09-24T14:57:21.467Z,27.55
2022-09-24T15:02:42.454Z,22.95
2022-09-24T15:07:49.719Z,22.83
2022-09-24T15:12:56.679Z,26.02
2022-09-24T15:18:02.372Z,22.30
2022-09-24T15:23:08.796Z,19.67
2022-09-24T15:28:16.774Z,20.98
2022-09-24T15:33:22.408Z,24.60
2022-09-24T15:43:34.508Z,24.07
2022-09-24T15:48:40.094Z,28.60
2022-09-24T15:53:46.550Z,23.10
2022-09-24T15:58:53.498Z,21.38
2022-09-24T16:04:00.637Z,23.52
2022-09-24T16:09:06.468Z,26.98
2022-09-24T16:14:13.358Z,22.33
2022-09-24T16:19:19.019Z,25.88
2022-09-24T16:24:24.689Z,23.45
2022-09-24T16:29:30.415Z,17.67
2022-09-24T16:39:45.518Z,23.77
2022-09-24T16:44:53.119Z,25.00
2022-09-24T16:49:58.725Z,28.08
2022-09-24T16:55:07.692Z,12.10
2022-09-24T17:00:15.517Z,22.10
2022-09-24T17:05:21.133Z,25.17
2022-09-24T17:11:01.654Z,16.50
2022-09-24T17:16:10.675Z,20.20
2022-09-24T17:21:18.530Z,24.67
2022-09-24T17:26:26.667Z,17.15
2022-09-24T17:31:32.287Z,20.63
2022-09-24T17:36:38.970Z,22.73
2022-09-24T17:41:44.839Z,22.95
2022-09-24T17:46:50.347Z,22.30
2022-09-24T17:51:55.913Z,23.67
2022-09-24T17:57:02.126Z,25.92
2022-09-24T18:02:08.504Z,27.25
2022-09-24T18:07:13.811Z,27.63
2022-09-24T18:12:19.609Z,21.95
2022-09-24T18:17:25.311Z,21.77
2022-09-24T18:22:30.914Z,15.23
2022-09-24T18:27:38.311Z,17.33
2022-09-24T18:32:47.743Z,16.20
2022-09-24T18:37:53.202Z,22.88
2022-09-24T18:42:59.853Z,27.50
2022-09-24T18:48:05.149Z,29.35
2022-09-24T18:53:10.830Z,16.77
2022-09-24T18:58:16.392Z,21.25
2022-09-24T19:03:25.684Z,27.73
2022-09-24T19:08:33.820Z,23.48
2022-09-24T19:13:41.216Z,28.70
2022-09-24T19:18:47.198Z,27.40
2022-09-24T19:23:57.982Z,28.17
2022-09-24T19:29:04.513Z,29.58
2022-09-24T19:34:13.519Z,29.73
2022-09-24T19:39:20.180Z,31.70
2022-09-24T19:44:25.708Z,31.80
2022-09-24T19:49:31.366Z,32.08
2022-09-24T19:54:37.106Z,35.15
2022-09-24T20:04:47.620Z,23.35
2022-09-24T20:09:52.845Z,22.00
2022-09-24T20:14:58.304Z,16.35
2022-09-24T20:20:04.492Z,26.33
2022-09-24T20:25:10.241Z,23.75
2022-09-24T20:30:15.772Z,21.58
2022-09-24T20:35:22.643Z,28.02
2022-09-24T20:40:28.036Z,28.80
2022-09-24T20:45:34.806Z,24.80
2022-09-24T20:50:40.330Z,30.90
2022-09-24T20:55:45.890Z,24.17
2022-09-24T21:00:56.422Z,32.08
2022-09-24T21:06:09.838Z,29.83
2022-09-24T21:11:21.455Z,33.40
2022-09-24T21:16:30.645Z,27.52
2022-09-24T21:21:40.320Z,21.25
2022-09-24T21:26:46.759Z,33.83
2022-09-24T21:31:52.412Z,33.28
2022-09-24T21:42:02.876Z,33.72
2022-09-24T21:47:08.321Z,34.03
2022-09-24T21:52:14.543Z,34.00
2022-09-24T21:57:20.315Z,34.08
2022-09-24T22:02:25.814Z,32.67
2022-09-24T22:07:31.506Z,34.47
2022-09-24T22:12:37.979Z,32.15
2022-09-24T22:17:44.141Z,29.25
2022-09-24T22:22:49.835Z,22.48
2022-09-24T22:27:56.356Z,28.65
2022-09-24T22:33:01.885Z,22.33
2022-09-24T22:38:08.625Z,24.95
2022-09-24T22:43:13.921Z,19.98
2022-09-24T22:48:19.099Z,20.93
2022-09-24T22:53:25.267Z,29.17
2022-09-24T22:58:31.096Z,23.52
2022-09-24T23:08:42.843Z,30.75
2022-09-24T23:13:52.640Z,33.80
2022-09-24T23:19:00.573Z,28.15
2022-09-24T23:24:09.309Z,21.77
2022-09-24T23:29:15.719Z,18.42
2022-09-24T23:34:22.043Z,19.77
2022-09-24T23:39:27.689Z,25.50
2022-09-24T23:44:33.091Z,17.85
2022-09-24T23:49:38.835Z,30.88
2022-09-24T23:54:44.912Z,23.13
